Orlando, FL (32807)

3:22 AM EST en Noviembre 23, 2014 (GMT -0500)
Azalea Park | Change Station
CLOSE
Current Station
Estación meteorológica personal
Location: Orlando, Fl
Altura: 104 ft
Estaciones meteorológicas cercanas

Alt 104 ft 28.54 °N, 81.30 °W | Updated 15 seconds ago

Lluvia
Lluvia
70.3 ° F
Sensación térmica 70.3 ° F
N
8.8
Viento Variable Viento desde ESE
Gusts 19.8 mph

Hoy
Alta -- | Baja -- ° F
--% Posibilidad de precipitaciones
Ayer
Alta -- | Baja -- ° F
Precip. -- pul
6:54 AM 5:28 PM
Luna nueva, 1% visible
Presión 30.05 pul
Visibilidad 10.0 Millas
Nubes Nublado 800 ft
Punto de rocío 69 ° F
Humedad 96%
Precipitaciones 0.02 pul
Espesor de la nieve No disponible.
UV 0 de una escala de 12
Polen 4.40 de una escala de 12
Calidad del aire No disponible.
Flu Activity No disponible.
METAR KORL 230753Z AUTO 12009KT 10SM OVC008 22/21 A3004 RMK AO2 CIG 006V011 SLP176 T02170211

More Conditions Fewer Conditions

Presión 30.05 pul
Visibilidad 10.0 Millas
Nubes Nublado 800 ft
Punto de rocío 69 ° F
Humedad 96%
Precipitaciones 0.02 pul
Espesor de la nieve No disponible.
UV 0 de una escala de 12
Polen 4.40 de una escala de 12
Calidad del aire No disponible.
Flu Activity No disponible.
METAR KORL 230753Z AUTO 12009KT 10SM OVC008 22/21 A3004 RMK AO2 CIG 006V011 SLP176 T02170211

More Conditions Fewer Conditions

10-Day Weather Forecast

Almanac

Astronomía

Nov. 23, 2014 Salida Puesta
Hora real
Crepúsculo civil
Crepúsculo náutico
Crepúsculo astronómico
Luna
Horas de luz
Horas de luz
Tomorrow will be .
, % of the Moon is Illuminated

Extremos de hoy

Máximos del estado Bajos del estado

Community

WunderPhotos

Upload Photos

1,773,024 ¡fotos cargadas!

WunderBlogs® & News

Nearby

Calidad del aire

  Calidad del aire Índice AQ Contaminante
Not available.

Grosos de nieve

Estación Profundido Altura

Actividad de terremotos

Ciudad Distance Mag. Tiempo y dato
Magnitud mínima muestra es 2,5.

Temperaturas de aguas costeras

Lugar Temperatura

Estaciones meteorológicas cercanas